Time;durP1;ratioP1;P1;durP2;ratioP2;P2;SDS_P1;SDS_P2;PMS_P1;PMS_P2;Temp;Humidity;BMP_temperature;BMP_pressure;BME280_temperature;BME280_humidity;BME280_pressure;Samples;Min_cycle;Max_cycle;Signal;HPM_P1;HPM_P2
2024/04/01 00:00:36;;;;;;;;;;;10.10;99.90;;;;;;4942581;28;19926;-65
2024/04/01 00:03:02;;;;;;;;;;;10.10;99.90;;;;;;4946827;28;19984;-65
2024/04/01 00:05:28;;;;;;;;;;;10.00;99.90;;;;;;4953803;28;20465;-65
2024/04/01 00:07:55;;;;;;;;;;;10.00;99.90;;;;;;4939817;28;19926;-65
2024/04/01 00:10:21;;;;;;;;;;;9.90;99.90;;;;;;4954240;28;19954;-65
2024/04/01 00:12:47;;;;;;;;;;;9.80;99.90;;;;;;4953512;28;19933;-65
2024/04/01 00:15:14;;;;;;;;;;;9.70;99.90;;;;;;4953223;28;19933;-66
2024/04/01 00:17:40;;;;;;;;;;;9.70;99.90;;;;;;4960329;28;19930;-65
2024/04/01 00:20:06;;;;;;;;;;;9.70;99.90;;;;;;4949782;28;19934;-65
2024/04/01 00:22:32;;;;;;;;;;;9.70;99.90;;;;;;4955397;28;19926;-65
2024/04/01 00:24:58;;;;;;;;;;;9.70;99.90;;;;;;4942176;28;19933;-65
2024/04/01 00:27:23;;;;;;;;;;;9.80;99.90;;;;;;4941287;28;20829;-65
2024/04/01 00:29:49;;;;;;;;;;;9.80;99.90;;;;;;4952655;28;19932;-65
2024/04/01 00:32:15;;;;;;;;;;;9.80;99.90;;;;;;4962981;28;19927;-65
2024/04/01 00:34:41;;;;;;;;;;;9.80;99.90;;;;;;4949425;28;19957;-65
2024/04/01 00:37:07;;;;;;;;;;;9.70;99.90;;;;;;4953200;28;19930;-65
2024/04/01 00:39:33;;;;;;;;;;;9.80;99.90;;;;;;4955131;28;20029;-65
2024/04/01 00:41:59;;;;;;;;;;;9.80;99.90;;;;;;4954286;28;19933;-65
2024/04/01 00:44:25;;;;;;;;;;;9.80;99.90;;;;;;4953366;28;19926;-65
2024/04/01 00:46:51;;;;;;;;;;;9.80;99.90;;;;;;4936734;28;20398;-65
2024/04/01 00:49:17;;;;;;;;;;;9.80;99.90;;;;;;4938838;28;19962;-65
2024/04/01 00:51:44;;;;;;;;;;;9.80;99.90;;;;;;4949824;28;19926;-65
2024/04/01 00:54:10;;;;;;;;;;;9.80;99.90;;;;;;4941109;28;19930;-65
2024/04/01 00:56:37;;;;;;;;;;;9.70;99.90;;;;;;4941762;28;20461;-65
2024/04/01 00:59:03;;;;;;;;;;;9.70;99.90;;;;;;4953682;28;19933;-65
2024/04/01 01:01:30;;;;;;;;;;;9.70;99.90;;;;;;4944942;28;19926;-65
2024/04/01 01:03:56;;;;;;;;;;;9.70;99.90;;;;;;4952305;28;20283;-65
2024/04/01 01:06:24;;;;;;;;;;;9.70;99.90;;;;;;4951652;28;19934;-65
2024/04/01 01:08:50;;;;;;;;;;;9.70;99.90;;;;;;4952762;28;19926;-65
2024/04/01 01:11:16;;;;;;;;;;;9.60;99.90;;;;;;4943357;28;19973;-65
2024/04/01 01:13:41;;;;;;;;;;;9.60;99.90;;;;;;4941168;28;19942;-65
2024/04/01 01:16:07;;;;;;;;;;;9.60;99.90;;;;;;4954036;28;19985;-65
2024/04/01 01:18:33;;;;;;;;;;;9.60;99.90;;;;;;4953603;28;19934;-65
2024/04/01 01:20:59;;;;;;;;;;;9.60;99.90;;;;;;4940868;28;19933;-65
2024/04/01 01:23:25;;;;;;;;;;;9.60;99.90;;;;;;4944335;28;20429;-65
2024/04/01 01:25:52;;;;;;;;;;;9.60;99.90;;;;;;4953772;28;20318;-65
2024/04/01 01:28:17;;;;;;;;;;;9.60;99.90;;;;;;4952749;28;19981;-65
2024/04/01 01:30:43;;;;;;;;;;;9.50;99.90;;;;;;4954718;28;19938;-65
2024/04/01 01:33:09;;;;;;;;;;;9.50;99.90;;;;;;4946458;28;19927;-65
2024/04/01 01:35:37;;;;;;;;;;;9.50;99.90;;;;;;4953928;28;20022;-65
2024/04/01 01:38:03;;;;;;;;;;;9.50;99.90;;;;;;4965410;28;19933;-65
2024/04/01 01:40:29;;;;;;;;;;;9.40;99.90;;;;;;4946626;28;19926;-65
2024/04/01 01:42:55;;;;;;;;;;;9.40;99.90;;;;;;4958127;28;19933;-65
2024/04/01 01:45:21;;;;;;;;;;;9.30;99.90;;;;;;4950156;28;19927;-65
2024/04/01 01:47:48;;;;;;;;;;;9.20;99.90;;;;;;4947287;28;19930;-65
2024/04/01 01:50:13;;;;;;;;;;;9.10;99.90;;;;;;4949405;28;20386;-65
2024/04/01 01:52:39;;;;;;;;;;;9.10;99.90;;;;;;4958122;28;20351;-65
2024/04/01 01:55:05;;;;;;;;;;;9.10;99.90;;;;;;4956405;28;19942;-65
2024/04/01 01:57:31;;;;;;;;;;;9.00;99.90;;;;;;4951485;28;20353;-65
2024/04/01 01:59:57;;;;;;;;;;;9.00;99.90;;;;;;4958049;28;19937;-65
2024/04/01 02:02:23;;;;;;;;;;;9.00;99.90;;;;;;4957068;28;19977;-65
2024/04/01 02:04:49;;;;;;;;;;;9.00;99.90;;;;;;4955982;28;19926;-65
2024/04/01 02:07:15;;;;;;;;;;;9.10;99.90;;;;;;4944061;28;19973;-65
2024/04/01 02:09:41;;;;;;;;;;;9.00;99.90;;;;;;4948681;28;19933;-65
2024/04/01 02:12:07;;;;;;;;;;;9.10;99.90;;;;;;4957336;28;19948;-65
2024/04/01 02:14:33;;;;;;;;;;;9.00;99.90;;;;;;4952751;28;19926;-65
2024/04/01 02:17:00;;;;;;;;;;;8.90;99.90;;;;;;4955931;28;19933;-64
2024/04/01 02:19:25;;;;;;;;;;;8.90;99.90;;;;;;4962917;28;19927;-65
2024/04/01 02:21:51;;;;;;;;;;;8.80;99.90;;;;;;4967421;28;19930;-65
2024/04/01 02:24:20;;;;;;;;;;;8.70;99.90;;;;;;4951486;28;19976;-65
2024/04/01 02:26:49;;;;;;;;;;;8.80;99.90;;;;;;4966357;28;20523;-65
2024/04/01 02:29:15;;;;;;;;;;;8.80;99.90;;;;;;4956716;28;19930;-65
2024/04/01 02:31:40;;;;;;;;;;;8.70;99.90;;;;;;4947818;28;19927;-65
2024/04/01 02:34:07;;;;;;;;;;;8.70;99.90;;;;;;4954549;28;20013;-65
2024/04/01 02:36:34;;;;;;;;;;;8.80;99.90;;;;;;4941827;28;19926;-65
2024/04/01 02:39:00;;;;;;;;;;;8.80;99.90;;;;;;4936804;28;19937;-65
2024/04/01 02:41:26;;;;;;;;;;;8.80;99.90;;;;;;4962515;28;19934;-65
2024/04/01 02:43:52;;;;;;;;;;;8.80;99.90;;;;;;4956899;28;19927;-65
2024/04/01 02:46:17;;;;;;;;;;;8.80;99.90;;;;;;4954595;28;20489;-65
2024/04/01 02:48:43;;;;;;;;;;;8.80;99.90;;;;;;4948862;28;19933;-65
2024/04/01 02:51:09;;;;;;;;;;;8.70;99.90;;;;;;4955332;28;19933;-65
2024/04/01 02:53:35;;;;;;;;;;;8.60;99.90;;;;;;4946343;28;19926;-65
2024/04/01 02:56:01;;;;;;;;;;;8.60;99.90;;;;;;4956123;28;20480;-65
2024/04/01 02:58:26;;;;;;;;;;;8.50;99.90;;;;;;4944763;28;19934;-65
2024/04/01 03:00:53;;;;;;;;;;;8.50;99.90;;;;;;4941303;28;20395;-65
2024/04/01 03:03:20;;;;;;;;;;;8.40;99.90;;;;;;4968543;28;19930;-65
2024/04/01 03:05:45;;;;;;;;;;;8.40;99.90;;;;;;4954569;28;19933;-65
2024/04/01 03:08:11;;;;;;;;;;;8.40;99.90;;;;;;4944890;28;19926;-65
2024/04/01 03:10:37;;;;;;;;;;;8.40;99.90;;;;;;4955612;28;19930;-65
2024/04/01 03:13:04;;;;;;;;;;;8.40;99.90;;;;;;4962103;28;20029;-65
2024/04/01 03:15:30;;;;;;;;;;;8.40;99.90;;;;;;4938680;28;19926;-65
2024/04/01 03:17:57;;;;;;;;;;;8.40;99.90;;;;;;4946567;28;19964;-65
2024/04/01 03:20:23;;;;;;;;;;;8.40;99.90;;;;;;4955795;28;19930;-65
2024/04/01 03:22:49;;;;;;;;;;;8.40;99.90;;;;;;4946688;28;19934;-65
2024/04/01 03:25:15;;;;;;;;;;;8.50;99.90;;;;;;4944622;28;19930;-64
2024/04/01 03:27:42;;;;;;;;;;;8.50;99.90;;;;;;4956326;28;19964;-65
2024/04/01 03:30:09;;;;;;;;;;;8.40;99.90;;;;;;4956315;28;19926;-65
2024/04/01 03:32:35;;;;;;;;;;;8.40;99.90;;;;;;4944705;28;19934;-65
2024/04/01 03:35:01;;;;;;;;;;;8.40;99.90;;;;;;4953705;28;19926;-65
2024/04/01 03:37:27;;;;;;;;;;;8.40;99.90;;;;;;4962096;28;19926;-65
2024/04/01 03:39:53;;;;;;;;;;;8.30;99.90;;;;;;4949535;28;19980;-65
2024/04/01 03:42:19;;;;;;;;;;;8.30;99.90;;;;;;4966807;28;20012;-65
2024/04/01 03:44:45;;;;;;;;;;;8.40;99.90;;;;;;4951032;28;19926;-65
2024/04/01 03:47:11;;;;;;;;;;;8.40;99.90;;;;;;4940141;28;19926;-65
2024/04/01 03:49:38;;;;;;;;;;;8.40;99.90;;;;;;4953865;28;19931;-64
2024/04/01 03:52:05;;;;;;;;;;;8.40;99.90;;;;;;4961802;28;19969;-65
2024/04/01 03:54:31;;;;;;;;;;;8.50;99.90;;;;;;4957553;28;19958;-65
2024/04/01 03:56:57;;;;;;;;;;;8.50;99.90;;;;;;4947789;28;19930;-65
2024/04/01 03:59:23;;;;;;;;;;;8.50;99.90;;;;;;4955391;28;20012;-65
2024/04/01 04:01:49;;;;;;;;;;;8.60;99.90;;;;;;4939715;28;20378;-65
2024/04/01 04:04:15;;;;;;;;;;;8.60;99.90;;;;;;4953834;28;20397;-64
2024/04/01 04:06:41;;;;;;;;;;;8.60;99.90;;;;;;4946303;28;20373;-71
2024/04/01 04:09:16;;;;;;;;;;;8.60;99.90;;;;;;4951873;28;20021;-65
2024/04/01 04:11:51;;;;;;;;;;;8.60;99.90;;;;;;4952950;28;19926;-64
2024/04/01 04:14:18;;;;;;;;;;;8.60;99.90;;;;;;4963526;28;19936;-65
2024/04/01 04:16:44;;;;;;;;;;;8.60;99.90;;;;;;4948453;28;20021;-65
2024/04/01 04:19:10;;;;;;;;;;;8.60;99.90;;;;;;4955131;28;20402;-65
2024/04/01 04:21:36;;;;;;;;;;;8.60;99.90;;;;;;4942900;28;19973;-65
2024/04/01 04:24:02;;;;;;;;;;;8.60;99.90;;;;;;4953200;28;19992;-65
2024/04/01 04:26:28;;;;;;;;;;;8.70;99.90;;;;;;4954235;28;20852;-65
2024/04/01 04:28:54;;;;;;;;;;;8.70;99.90;;;;;;4955558;28;19930;-65
2024/04/01 04:31:20;;;;;;;;;;;8.70;99.90;;;;;;4953853;28;19929;-65
2024/04/01 04:33:46;;;;;;;;;;;8.70;99.90;;;;;;4953775;28;19985;-65
2024/04/01 04:36:12;;;;;;;;;;;8.70;99.90;;;;;;4953289;28;19927;-65
2024/04/01 04:38:38;;;;;;;;;;;8.70;99.90;;;;;;4946924;28;20014;-65
2024/04/01 04:41:04;;;;;;;;;;;8.70;99.90;;;;;;4936357;28;19926;-65
2024/04/01 04:43:30;;;;;;;;;;;8.70;99.90;;;;;;4963673;28;19937;-65
2024/04/01 04:45:56;;;;;;;;;;;8.70;99.90;;;;;;4954628;28;19926;-65
2024/04/01 04:48:22;;;;;;;;;;;8.70;99.90;;;;;;4939244;28;19931;-65
2024/04/01 04:50:48;;;;;;;;;;;8.70;99.90;;;;;;4944529;28;19927;-65
2024/04/01 04:53:14;;;;;;;;;;;8.70;99.90;;;;;;4955414;28;19989;-65
2024/04/01 04:55:40;;;;;;;;;;;8.70;99.90;;;;;;4954218;28;20406;-65
2024/04/01 04:58:06;;;;;;;;;;;8.70;99.90;;;;;;4953305;28;19927;-65
2024/04/01 05:00:33;;;;;;;;;;;8.70;99.90;;;;;;4938654;28;20037;-65
2024/04/01 05:02:58;;;;;;;;;;;8.70;99.90;;;;;;4948171;28;20391;-65
2024/04/01 05:05:25;;;;;;;;;;;8.70;99.90;;;;;;4953551;28;19937;-65
2024/04/01 05:07:51;;;;;;;;;;;8.70;99.90;;;;;;4965676;28;20383;-65
2024/04/01 05:10:17;;;;;;;;;;;8.60;99.90;;;;;;4954567;28;19930;-65
2024/04/01 05:12:43;;;;;;;;;;;8.70;99.90;;;;;;4939574;28;19927;-65
2024/04/01 05:15:09;;;;;;;;;;;8.70;99.90;;;;;;4969363;28;20317;-65
2024/04/01 05:17:36;;;;;;;;;;;8.80;99.90;;;;;;4950944;28;19926;-64
2024/04/01 05:20:04;;;;;;;;;;;9.00;99.90;;;;;;4958453;28;20276;-65
2024/04/01 05:22:30;;;;;;;;;;;9.00;99.90;;;;;;4956444;28;19965;-65
2024/04/01 05:24:56;;;;;;;;;;;9.10;99.90;;;;;;4958331;28;20314;-65
2024/04/01 05:27:22;;;;;;;;;;;9.20;99.90;;;;;;4954278;28;19930;-65
2024/04/01 05:30:11;;;;;;;;;;;9.20;99.90;;;;;;4958190;28;19981;-65
2024/04/01 05:32:37;;;;;;;;;;;9.30;99.90;;;;;;4952144;28;19933;-65
2024/04/01 05:35:05;;;;;;;;;;;9.30;99.90;;;;;;4962764;28;20346;-65
2024/04/01 05:37:32;;;;;;;;;;;9.40;99.90;;;;;;4947702;28;19926;-65
2024/04/01 05:39:58;;;;;;;;;;;9.50;99.90;;;;;;4958214;28;19937;-65
2024/04/01 05:42:24;;;;;;;;;;;9.50;99.90;;;;;;4945084;28;19954;-65
2024/04/01 05:44:50;;;;;;;;;;;9.60;99.90;;;;;;4948270;28;20009;-65
2024/04/01 05:47:16;;;;;;;;;;;9.60;99.90;;;;;;4956250;28;19946;-65
2024/04/01 05:49:42;;;;;;;;;;;9.70;99.90;;;;;;4947746;28;19976;-65
2024/04/01 05:52:08;;;;;;;;;;;9.70;99.90;;;;;;4956314;28;19927;-65
2024/04/01 05:54:34;;;;;;;;;;;9.80;99.90;;;;;;4956709;28;19930;-65
2024/04/01 05:57:00;;;;;;;;;;;9.90;99.90;;;;;;4953147;28;19930;-65
2024/04/01 05:59:26;;;;;;;;;;;10.00;99.90;;;;;;4956869;28;19936;-65
2024/04/01 06:01:53;;;;;;;;;;;10.00;99.90;;;;;;4949102;28;20397;-65
2024/04/01 06:04:19;;;;;;;;;;;10.00;99.90;;;;;;4955418;28;19977;-65
2024/04/01 06:06:45;;;;;;;;;;;10.00;99.90;;;;;;4927691;28;19936;-65
2024/04/01 06:09:11;;;;;;;;;;;10.10;99.90;;;;;;4956995;28;19926;-65
2024/04/01 06:11:37;;;;;;;;;;;10.00;99.90;;;;;;4961370;28;19930;-65
2024/04/01 06:14:03;;;;;;;;;;;10.00;99.90;;;;;;4946289;28;19970;-65
2024/04/01 06:16:30;;;;;;;;;;;10.20;99.90;;;;;;4956480;28;19926;-65
2024/04/01 06:18:56;;;;;;;;;;;10.60;99.90;;;;;;4950050;28;20279;-65
2024/04/01 06:21:22;;;;;;;;;;;11.30;99.90;;;;;;4940943;28;19974;-65
2024/04/01 06:23:48;;;;;;;;;;;11.70;99.90;;;;;;4947012;28;19926;-65
2024/04/01 06:26:14;;;;;;;;;;;11.90;99.90;;;;;;4956336;28;19930;-65
2024/04/01 06:28:40;;;;;;;;;;;12.20;99.90;;;;;;4965205;28;19927;-65
2024/04/01 06:31:06;;;;;;;;;;;12.30;99.90;;;;;;4955339;28;20505;-65
2024/04/01 06:33:35;;;;;;;;;;;12.20;99.90;;;;;;4945520;29;19949;-65
2024/04/01 06:36:01;;;;;;;;;;;12.10;99.90;;;;;;4946288;28;19937;-65
2024/04/01 06:38:27;;;;;;;;;;;12.10;99.90;;;;;;4953590;28;19934;-65
2024/04/01 06:40:53;;;;;;;;;;;12.10;99.90;;;;;;4956275;28;19926;-65
2024/04/01 06:43:18;;;;;;;;;;;12.00;99.90;;;;;;4956874;28;19982;-65
2024/04/01 06:45:51;;;;;;;;;;;12.00;99.90;;;;;;4939648;28;19934;-65
2024/04/01 06:48:17;;;;;;;;;;;12.00;99.90;;;;;;4956746;28;19976;-65
2024/04/01 06:50:43;;;;;;;;;;;12.00;99.90;;;;;;4940758;28;19926;-65
2024/04/01 06:53:09;;;;;;;;;;;11.90;99.90;;;;;;4946419;28;20398;-65
2024/04/01 06:55:35;;;;;;;;;;;11.90;99.90;;;;;;4948986;28;19931;-65
2024/04/01 06:58:01;;;;;;;;;;;11.90;99.90;;;;;;4939801;28;19930;-65
2024/04/01 07:00:27;;;;;;;;;;;11.90;99.90;;;;;;4954406;28;19926;-65
2024/04/01 07:02:53;;;;;;;;;;;11.90;99.90;;;;;;4944418;28;19996;-65
2024/04/01 07:05:19;;;;;;;;;;;11.80;99.90;;;;;;4955369;28;20426;-65
2024/04/01 07:07:45;;;;;;;;;;;11.80;99.90;;;;;;4944897;28;19934;-65
2024/04/01 07:10:11;;;;;;;;;;;11.70;99.90;;;;;;4937987;28;19976;-65
2024/04/01 07:12:37;;;;;;;;;;;11.60;99.90;;;;;;4951143;28;19977;-65
2024/04/01 07:15:04;;;;;;;;;;;11.50;99.90;;;;;;4955042;28;19926;-64
2024/04/01 07:17:29;;;;;;;;;;;11.40;99.90;;;;;;4954047;28;19926;-64
2024/04/01 07:19:55;;;;;;;;;;;11.20;99.90;;;;;;4944214;28;19980;-64
2024/04/01 07:22:21;;;;;;;;;;;11.10;99.90;;;;;;4952334;28;20390;-64
2024/04/01 07:24:47;;;;;;;;;;;10.90;99.90;;;;;;4954972;28;19933;-64
2024/04/01 07:27:13;;;;;;;;;;;10.80;99.90;;;;;;4951456;28;19930;-64
2024/04/01 07:29:39;;;;;;;;;;;10.70;99.90;;;;;;4937422;28;19937;-64
2024/04/01 07:32:05;;;;;;;;;;;10.50;99.90;;;;;;4954970;28;20386;-64
2024/04/01 07:34:31;;;;;;;;;;;10.30;99.90;;;;;;4954637;28;19930;-65
2024/04/01 07:36:57;;;;;;;;;;;10.20;99.90;;;;;;4922669;28;20337;-65
2024/04/01 07:39:23;;;;;;;;;;;10.00;99.90;;;;;;4954113;28;19962;-65
2024/04/01 07:41:49;;;;;;;;;;;9.90;99.90;;;;;;4954502;28;19937;-65
2024/04/01 07:44:15;;;;;;;;;;;9.80;99.90;;;;;;4955081;28;19930;-65
2024/04/01 07:46:41;;;;;;;;;;;9.60;99.90;;;;;;4948760;28;20641;-65
2024/04/01 07:49:07;;;;;;;;;;;9.50;99.90;;;;;;4954074;28;19926;-65
2024/04/01 07:51:33;;;;;;;;;;;9.50;99.90;;;;;;4934676;28;19930;-65
2024/04/01 07:54:00;;;;;;;;;;;9.30;99.90;;;;;;4919646;28;19934;-65
2024/04/01 07:56:25;;;;;;;;;;;9.30;99.90;;;;;;4937051;28;20418;-65
2024/04/01 07:58:51;;;;;;;;;;;9.30;99.90;;;;;;4953535;28;20017;-65
2024/04/01 08:01:17;;;;;;;;;;;9.10;99.90;;;;;;4935983;28;19938;-65
2024/04/01 08:03:43;;;;;;;;;;;9.10;99.90;;;;;;4951922;28;20437;-65
2024/04/01 08:06:09;;;;;;;;;;;9.10;99.90;;;;;;4953730;28;20402;-65
2024/04/01 08:08:35;;;;;;;;;;;9.10;99.90;;;;;;4953891;28;19974;-65
2024/04/01 08:11:01;;;;;;;;;;;9.10;99.90;;;;;;4938512;28;19949;-65
2024/04/01 08:13:27;;;;;;;;;;;9.10;99.90;;;;;;4952507;28;19927;-66
2024/04/01 08:15:57;;;;;;;;;;;9.10;99.90;;;;;;4946574;28;19953;-65
2024/04/01 08:18:22;;;;;;;;;;;9.10;99.90;;;;;;4952144;28;19953;-66
2024/04/01 08:20:48;;;;;;;;;;;9.10;99.90;;;;;;4954550;28;19969;-65
2024/04/01 08:23:14;;;;;;;;;;;9.20;99.90;;;;;;4953550;28;19941;-65
2024/04/01 08:25:40;;;;;;;;;;;9.20;99.90;;;;;;4951292;28;19934;-65
2024/04/01 08:28:06;;;;;;;;;;;9.20;99.90;;;;;;4953346;28;19930;-65
2024/04/01 08:30:32;;;;;;;;;;;9.20;99.90;;;;;;4939693;28;19926;-65
2024/04/01 08:32:58;;;;;;;;;;;9.10;99.90;;;;;;4921753;28;20599;-65
2024/04/01 08:35:24;;;;;;;;;;;9.10;99.90;;;;;;4954245;28;19926;-66
2024/04/01 08:37:50;;;;;;;;;;;9.10;99.90;;;;;;4954975;28;20312;-65
2024/04/01 08:40:16;;;;;;;;;;;9.10;99.90;;;;;;4945429;28;19934;-65
2024/04/01 08:42:43;;;;;;;;;;;9.10;99.90;;;;;;4938028;28;19926;-65
2024/04/01 08:45:12;;;;;;;;;;;9.10;99.90;;;;;;4937959;28;19965;-65
2024/04/01 08:47:40;;;;;;;;;;;9.20;99.90;;;;;;4954613;28;19926;-65
2024/04/01 08:50:09;;;;;;;;;;;9.20;99.90;;;;;;4948691;28;19937;-65
2024/04/01 08:52:52;;;;;;;;;;;9.20;99.90;;;;;;4952421;28;19938;-65
2024/04/01 08:55:19;;;;;;;;;;;9.20;99.90;;;;;;4949584;28;19934;-66
2024/04/01 08:57:45;;;;;;;;;;;9.20;99.90;;;;;;4954767;28;19929;-66
2024/04/01 09:00:11;;;;;;;;;;;9.20;99.90;;;;;;4952396;28;19931;-66
2024/04/01 09:02:37;;;;;;;;;;;9.30;99.90;;;;;;4953849;28;19930;-66
2024/04/01 09:05:03;;;;;;;;;;;9.30;99.90;;;;;;4953223;28;19929;-66
2024/04/01 09:07:29;;;;;;;;;;;9.20;99.90;;;;;;4952924;28;20350;-67
2024/04/01 09:09:55;;;;;;;;;;;9.20;99.90;;;;;;4942666;28;20055;-66
2024/04/01 09:12:21;;;;;;;;;;;9.20;99.90;;;;;;4948813;28;19965;-66
2024/04/01 09:14:47;;;;;;;;;;;9.20;99.90;;;;;;4937617;28;19926;-66
2024/04/01 09:17:13;;;;;;;;;;;9.30;99.90;;;;;;4954421;28;19926;-65
2024/04/01 09:19:39;;;;;;;;;;;9.30;99.90;;;;;;4951776;28;20378;-65
2024/04/01 09:22:05;;;;;;;;;;;9.30;99.90;;;;;;4951024;28;19934;-64
2024/04/01 09:24:32;;;;;;;;;;;9.30;99.90;;;;;;4950849;28;19933;-65
2024/04/01 09:26:58;;;;;;;;;;;9.30;99.90;;;;;;4952972;28;20477;-64
2024/04/01 09:29:24;;;;;;;;;;;9.40;99.90;;;;;;4941874;28;19933;-65
2024/04/01 09:31:50;;;;;;;;;;;9.40;99.90;;;;;;4953281;28;20025;-65
2024/04/01 09:34:17;;;;;;;;;;;9.40;99.90;;;;;;4949217;28;20393;-65
2024/04/01 09:36:43;;;;;;;;;;;9.50;99.90;;;;;;4947743;28;19934;-64
2024/04/01 09:39:10;;;;;;;;;;;9.50;99.90;;;;;;4947543;28;19926;-64
2024/04/01 09:41:36;;;;;;;;;;;9.50;99.90;;;;;;4949987;28;20314;-64
2024/04/01 09:44:02;;;;;;;;;;;9.60;99.90;;;;;;4950835;28;19953;-65
2024/04/01 09:46:30;;;;;;;;;;;9.60;99.90;;;;;;4948131;28;19930;-65
2024/04/01 09:48:56;;;;;;;;;;;9.60;99.90;;;;;;4952497;28;19930;-65
2024/04/01 09:51:23;;;;;;;;;;;9.60;99.90;;;;;;4936210;28;19934;-64
2024/04/01 09:53:49;;;;;;;;;;;9.70;99.90;;;;;;4948667;28;19926;-65
2024/04/01 09:56:34;;;;;;;;;;;9.80;99.90;;;;;;4946830;28;19930;-64
2024/04/01 09:59:09;;;;;;;;;;;9.90;99.90;;;;;;4943246;28;19937;-65
2024/04/01 10:01:55;;;;;;;;;;;9.90;99.90;;;;;;4934341;28;19930;-65
2024/04/01 10:04:21;;;;;;;;;;;9.90;99.90;;;;;;4957783;28;19930;-65
2024/04/01 10:07:01;;;;;;;;;;;10.00;99.90;;;;;;4942979;28;19934;-65
2024/04/01 10:09:45;;;;;;;;;;;10.00;99.90;;;;;;4955362;28;19934;-65
2024/04/01 10:12:36;;;;;;;;;;;10.10;99.90;;;;;;4958054;28;19936;-65
2024/04/01 10:15:20;;;;;;;;;;;10.20;99.90;;;;;;4939716;28;20466;-65
2024/04/01 10:18:01;;;;;;;;;;;10.20;99.90;;;;;;4955598;28;20387;-65
2024/04/01 10:20:39;;;;;;;;;;;10.20;99.90;;;;;;4956713;28;19974;-65
2024/04/01 10:23:23;;;;;;;;;;;10.20;99.90;;;;;;4949272;28;19941;-65
2024/04/01 10:25:49;;;;;;;;;;;10.20;99.90;;;;;;4957711;28;20342;-65
2024/04/01 10:28:34;;;;;;;;;;;10.20;99.90;;;;;;4971698;28;19981;-65
2024/04/01 10:31:08;;;;;;;;;;;10.20;99.90;;;;;;4934053;28;19930;-65
2024/04/01 10:33:46;;;;;;;;;;;10.20;99.90;;;;;;4955682;28;19926;-65
2024/04/01 10:36:25;;;;;;;;;;;10.20;99.90;;;;;;4955436;28;20025;-65
2024/04/01 10:39:17;;;;;;;;;;;10.30;99.90;;;;;;4949313;28;19961;-65
2024/04/01 10:42:07;;;;;;;;;;;10.30;99.90;;;;;;4952235;28;19926;-65
2024/04/01 10:44:33;;;;;;;;;;;10.30;99.90;;;;;;4954792;28;19962;-65
2024/04/01 10:47:14;;;;;;;;;;;10.40;99.90;;;;;;4954220;28;19930;-65
2024/04/01 10:50:00;;;;;;;;;;;10.40;99.90;;;;;;4954231;28;19941;-66
2024/04/01 10:52:45;;;;;;;;;;;10.60;99.90;;;;;;4950212;28;19969;-66
2024/04/01 10:55:23;;;;;;;;;;;10.70;99.90;;;;;;4950043;28;19930;-66
2024/04/01 10:58:08;;;;;;;;;;;10.70;99.90;;;;;;4949980;28;20450;-65
2024/04/01 11:00:43;;;;;;;;;;;10.60;99.90;;;;;;4953807;28;19938;-65
2024/04/01 11:03:28;;;;;;;;;;;10.60;99.90;;;;;;4953090;28;19937;-66
2024/04/01 11:06:12;;;;;;;;;;;10.70;99.90;;;;;;4937691;28;19933;-66
2024/04/01 11:08:54;;;;;;;;;;;10.70;99.90;;;;;;4954569;28;19937;-65
2024/04/01 11:11:26;;;;;;;;;;;10.80;99.90;;;;;;4968220;28;19933;-65
2024/04/01 11:13:53;;;;;;;;;;;10.90;99.90;;;;;;4958351;28;20496;-65
2024/04/01 11:16:20;;;;;;;;;;;10.90;99.90;;;;;;4938484;28;19953;-65
2024/04/01 11:18:46;;;;;;;;;;;10.80;99.90;;;;;;4934591;28;19960;-65
2024/04/01 11:21:21;;;;;;;;;;;10.90;99.90;;;;;;4950410;28;19934;-65
2024/04/01 11:24:06;;;;;;;;;;;10.90;99.90;;;;;;4929165;28;19981;-66
2024/04/01 11:26:35;;;;;;;;;;;10.80;99.90;;;;;;4954641;28;20394;-65
2024/04/01 11:29:07;;;;;;;;;;;10.70;99.90;;;;;;4949832;28;19930;-65
2024/04/01 11:31:33;;;;;;;;;;;10.70;99.90;;;;;;4951557;28;19934;-65
2024/04/01 11:34:03;;;;;;;;;;;10.60;99.90;;;;;;4952951;28;20317;-65
2024/04/01 11:36:46;;;;;;;;;;;10.50;99.90;;;;;;4951290;28;20365;-65
2024/04/01 11:39:16;;;;;;;;;;;10.60;99.90;;;;;;4968637;28;19926;-66
2024/04/01 11:41:45;;;;;;;;;;;10.60;99.90;;;;;;4949023;28;19931;-65
2024/04/01 11:44:12;;;;;;;;;;;10.50;99.90;;;;;;4951866;28;20398;-65
2024/04/01 11:46:39;;;;;;;;;;;10.40;99.90;;;;;;4950890;28;20041;-65
2024/04/01 11:49:05;;;;;;;;;;;10.40;99.90;;;;;;4941565;29;19931;-65
2024/04/01 11:51:35;;;;;;;;;;;10.40;99.90;;;;;;4964852;28;19934;-65
2024/04/01 11:54:01;;;;;;;;;;;10.40;99.90;;;;;;4954461;28;19933;-65
2024/04/01 11:56:38;;;;;;;;;;;10.60;99.90;;;;;;4946753;28;19945;-66
2024/04/01 11:59:10;;;;;;;;;;;10.70;99.90;;;;;;4948049;28;19973;-65
2024/04/01 12:01:38;;;;;;;;;;;10.60;99.90;;;;;;4954495;28;19926;-65
2024/04/01 12:04:04;;;;;;;;;;;10.70;99.90;;;;;;4953720;28;19933;-65
2024/04/01 12:06:31;;;;;;;;;;;10.70;99.90;;;;;;4952034;28;19980;-65
2024/04/01 12:09:00;;;;;;;;;;;10.60;99.90;;;;;;4940440;28;19933;-65
2024/04/01 12:11:32;;;;;;;;;;;10.60;99.90;;;;;;4952845;28;20361;-65
2024/04/01 12:13:58;;;;;;;;;;;10.60;99.90;;;;;;4947852;28;19976;-65
2024/04/01 12:16:24;;;;;;;;;;;10.80;99.90;;;;;;4943271;28;19930;-65
2024/04/01 12:18:51;;;;;;;;;;;10.90;99.90;;;;;;4955227;28;19937;-65
2024/04/01 12:21:20;;;;;;;;;;;11.10;99.90;;;;;;4938728;28;19980;-65
2024/04/01 12:23:49;;;;;;;;;;;11.20;99.90;;;;;;4955072;28;19926;-65
2024/04/01 12:26:15;;;;;;;;;;;10.90;99.90;;;;;;4956264;28;20417;-65
2024/04/01 12:28:42;;;;;;;;;;;10.70;99.90;;;;;;4953930;28;19930;-65
2024/04/01 12:31:11;;;;;;;;;;;10.70;99.90;;;;;;4949376;28;19927;-65
2024/04/01 12:33:37;;;;;;;;;;;10.60;99.90;;;;;;4946362;28;20283;-65
2024/04/01 12:36:04;;;;;;;;;;;10.60;99.90;;;;;;4942159;28;19954;-65
2024/04/01 12:38:38;;;;;;;;;;;10.80;99.90;;;;;;4952183;28;19973;-65
2024/04/01 12:41:04;;;;;;;;;;;10.90;99.90;;;;;;4955111;28;19992;-65
2024/04/01 12:43:31;;;;;;;;;;;10.90;99.90;;;;;;4947879;28;19926;-65
2024/04/01 12:45:57;;;;;;;;;;;10.80;99.90;;;;;;4951022;28;19926;-65
2024/04/01 12:48:25;;;;;;;;;;;10.60;99.90;;;;;;4964403;28;19964;-65
2024/04/01 12:50:51;;;;;;;;;;;10.50;99.90;;;;;;4953663;28;19934;-65
2024/04/01 12:53:36;;;;;;;;;;;10.50;99.90;;;;;;4949738;28;19948;-65
2024/04/01 12:56:02;;;;;;;;;;;10.40;99.90;;;;;;4952695;28;19938;-65
2024/04/01 12:58:29;;;;;;;;;;;10.40;99.90;;;;;;4949565;28;20288;-65
2024/04/01 13:01:11;;;;;;;;;;;10.40;99.90;;;;;;4948940;28;19926;-65
2024/04/01 13:03:47;;;;;;;;;;;10.30;99.90;;;;;;4953595;28;19934;-65
2024/04/01 13:06:22;;;;;;;;;;;10.40;99.90;;;;;;4947363;28;19930;-65
2024/04/01 13:08:56;;;;;;;;;;;10.40;99.90;;;;;;4953830;28;20414;-65
2024/04/01 13:11:39;;;;;;;;;;;10.40;99.90;;;;;;4953952;28;20390;-65
2024/04/01 13:14:17;;;;;;;;;;;10.40;99.90;;;;;;4952175;28;19930;-65
2024/04/01 13:16:46;;;;;;;;;;;10.50;99.90;;;;;;4950595;28;19965;-65
2024/04/01 13:19:32;;;;;;;;;;;10.50;99.90;;;;;;4965891;28;19933;-65
2024/04/01 13:22:05;;;;;;;;;;;10.50;99.90;;;;;;4955292;28;20309;-65
2024/04/01 13:24:31;;;;;;;;;;;10.40;99.90;;;;;;4954353;28;20390;-65
2024/04/01 13:27:02;;;;;;;;;;;10.40;99.90;;;;;;4953556;28;19936;-65
2024/04/01 13:29:47;;;;;;;;;;;10.40;99.90;;;;;;4948299;28;19926;-65
2024/04/01 13:32:12;;;;;;;;;;;10.40;99.90;;;;;;4955401;28;19934;-65
2024/04/01 13:34:54;;;;;;;;;;;10.40;99.90;;;;;;4947434;28;19935;-65
2024/04/01 13:37:29;;;;;;;;;;;10.30;99.90;;;;;;4948479;28;19933;-65
2024/04/01 13:40:14;;;;;;;;;;;10.40;99.90;;;;;;4966607;28;19941;-65
2024/04/01 13:42:58;;;;;;;;;;;10.50;99.90;;;;;;4952891;28;19930;-65
2024/04/01 13:45:43;;;;;;;;;;;10.60;99.90;;;;;;4954813;28;19937;-65
2024/04/01 13:48:16;;;;;;;;;;;10.70;99.90;;;;;;4957406;28;19927;-65
2024/04/01 13:50:58;;;;;;;;;;;10.60;99.90;;;;;;4955723;28;19977;-65
2024/04/01 13:53:26;;;;;;;;;;;10.70;99.90;;;;;;4964837;28;20571;-65
2024/04/01 13:55:59;;;;;;;;;;;10.70;99.90;;;;;;4957994;28;19980;-65
2024/04/01 13:58:43;;;;;;;;;;;10.70;99.90;;;;;;4953824;28;19927;-65
2024/04/01 14:01:15;;;;;;;;;;;10.60;99.90;;;;;;4951260;28;19962;-65
2024/04/01 14:03:50;;;;;;;;;;;10.60;99.90;;;;;;4954853;28;19950;-65
2024/04/01 14:06:35;;;;;;;;;;;10.60;99.90;;;;;;4954280;28;20009;-64
2024/04/01 14:09:01;;;;;;;;;;;10.60;99.90;;;;;;4964977;28;19980;-64
2024/04/01 14:11:47;;;;;;;;;;;10.60;99.90;;;;;;4947420;28;20024;-64
2024/04/01 14:14:23;;;;;;;;;;;10.60;99.90;;;;;;4948097;28;20074;-64
2024/04/01 14:17:08;;;;;;;;;;;10.40;99.90;;;;;;4942898;28;19930;-64
2024/04/01 14:19:45;;;;;;;;;;;10.40;99.90;;;;;;4955300;28;19926;-64
2024/04/01 14:22:11;;;;;;;;;;;10.50;99.90;;;;;;4946006;28;20315;-64
2024/04/01 14:24:37;;;;;;;;;;;10.60;99.90;;;;;;4941667;28;19927;-65
2024/04/01 14:27:03;;;;;;;;;;;10.50;99.90;;;;;;4955176;28;20005;-64
2024/04/01 14:29:29;;;;;;;;;;;10.50;99.90;;;;;;4960247;28;19926;-64
2024/04/01 14:31:55;;;;;;;;;;;10.40;99.90;;;;;;4949323;28;19934;-64